Summerville, SC (29485)

1:08 PM EST on February 14, 2016 (GMT -0500)
Ashborough East | | Change Station
CLOSE
Current Station
Personal Weather Station
Location: Summerville, SC
Elevation: 36 ft
Nearby Weather Stations
Active Advisory: Flood Warning

Elev 36 ft 32.96 °N, 80.18 °W | Updated 2 minutes ago

Clear
Clear
39.6 °F
Feels Like 40 °F
N
0.0
Wind Variable Wind from North
Gusts 0.0 mph

Today
High -- | Low -- °F
--% Chance of Precip.
Yesterday
High -- | Low -- °F
Precip. -- in
Pressure 30.46 in
Visibility 10.0 miles
Clouds Clear
Windchill 40 °F
Dew Point 7 °F
Humidity 26%
Rainfall 0.00 in
Snow Depth Not available.
7:05 AM 6:04 PM
Waxing Crescent, 44% visible
METAR KDYB 141755Z AUTO 10005KT 10SM CLR 05/M12 A3046 RMK AO1
Pressure 30.46 in
Visibility 10.0 miles
Clouds Clear
Windchill 40 °F
Dew Point 7 °F
Humidity 26%
Rainfall 0.00 in
Snow Depth Not available.
7:05 AM 6:04 PM
Waxing Crescent, 44% visible
METAR KDYB 141755Z AUTO 10005KT 10SM CLR 05/M12 A3046 RMK AO1

10-Day Weather Forecast

Almanac

Astronomy

Feb. 14, 2016 Rise Set
Actual Time
Civil Twilight
Nautical Twilight
Astronomical Twilight
Moon
Length of Visible Light
Length of Day
Tomorrow will be .
, % of the Moon is Illuminated

Today's Extremes

State Highs State Lows

Community

WunderPhotos

Upload Photos

1,892,866 photos uploaded!

WunderBlog® & News

Nearby

Air Quality

  Air Quality AQ Index Pollutant
Not available.

Snow Depth

Station Depth Elevation

Earthquake Activity

City Distance Mag. Time & Date
Minimum magnitude displayed is 2.5.

Coastal Water Temperatures

Place Temperature

Stations

Nearby Weather Stations

Station Location Temp. Windchill Dew Point Humidity Wind Precip. Elev Updated Type
                   

Watches & Warnings

Flood Warning
Issued: 9:31 AM EST Feb. 14, 2016 – National Weather Service

The Flood Warning continues for
the edisto river near Givhans Ferry.
* At 8 am Sunday the stage was 11.6 feet.
* Flood stage is 10.0 feet.
* Minor flooding is occurring.
* Forecast, the river will continue to fall.
* At 12.0 feet, most homes on happiness Lane are accessible only by
boat. Flooding also occurs along roadways south of Highway 17
alternate including Camp buddy Road.


Lat... Lon 3304 8065 3311 8062 3308 8036 3286 8036
          3286 8045 3302 8044